Time;durP1;ratioP1;P1;durP2;ratioP2;P2;SDS_P1;SDS_P2;PMS_P1;PMS_P2;Temp;Humidity;BMP_temperature;BMP_pressure;BME280_temperature;BME280_humidity;BME280_pressure;Samples;Min_cycle;Max_cycle;Signal;HPM_P1;HPM_P2
2022/02/17 00:00:33;;;;;;;38.50;17.52;;;;;;;4.44;65.34;93646.47;5062707;28;20063;-71
2022/02/17 00:02:59;;;;;;;37.88;17.25;;;;;;;4.43;65.48;93644.91;5062533;28;20043;-71
2022/02/17 00:05:25;;;;;;;42.47;17.85;;;;;;;4.46;65.68;93651.47;5062420;28;20350;-71
2022/02/17 00:07:52;;;;;;;41.95;17.98;;;;;;;4.47;65.78;93651.19;5062304;28;20150;-71
2022/02/17 00:10:19;;;;;;;41.75;16.67;;;;;;;4.52;65.54;93666.19;5062418;28;20021;-70
2022/02/17 00:12:44;;;;;;;40.75;17.92;;;;;;;4.49;65.37;93662.25;5062117;28;20037;-70
2022/02/17 00:15:11;;;;;;;32.90;17.05;;;;;;;4.42;65.83;93667.09;5062179;28;20023;-70
2022/02/17 00:17:36;;;;;;;39.28;18.17;;;;;;;4.45;65.51;93660.47;5062482;28;20016;-71
2022/02/17 00:20:03;;;;;;;36.15;17.33;;;;;;;4.47;65.25;93661.75;5062395;28;20043;-71
2022/02/17 00:22:28;;;;;;;36.58;16.92;;;;;;;4.47;65.33;93661.75;5062216;28;20071;-71
2022/02/17 00:24:53;;;;;;;39.65;18.05;;;;;;;4.38;65.77;93664.22;5062146;28;20239;-71
2022/02/17 00:27:19;;;;;;;37.80;17.92;;;;;;;4.37;65.90;93661.84;5062336;28;20025;-71
2022/02/17 00:29:45;;;;;;;39.00;16.83;;;;;;;4.36;65.45;93661.06;5062284;28;20017;-71
2022/02/17 00:32:11;;;;;;;44.42;17.90;;;;;;;4.36;65.27;93661.06;5061193;28;20021;-71
2022/02/17 00:34:36;;;;;;;36.83;19.27;;;;;;;4.32;65.91;93659.25;5060890;28;20096;-71
2022/02/17 00:37:03;;;;;;;38.95;17.63;;;;;;;4.23;66.18;93653.78;5062182;28;20047;-71
2022/02/17 00:39:30;;;;;;;35.58;17.20;;;;;;;4.18;66.39;93651.22;5062166;28;20036;-71
2022/02/17 00:41:56;;;;;;;38.33;17.33;;;;;;;4.13;66.67;93638.84;5062255;28;20041;-71
2022/02/17 00:44:22;;;;;;;31.98;17.45;;;;;;;4.08;66.73;93644.16;5062001;28;20028;-71
2022/02/17 00:46:48;;;;;;;41.75;17.15;;;;;;;4.04;66.57;93634.44;5062213;28;20029;-71
2022/02/17 00:49:14;;;;;;;34.40;17.42;;;;;;;4.04;66.53;93627.31;5062194;28;20224;-72
2022/02/17 00:51:40;;;;;;;34.60;17.08;;;;;;;4.05;66.32;93631.53;5062227;28;20031;-72
2022/02/17 00:54:05;;;;;;;36.55;16.75;;;;;;;4.05;66.35;93630.75;5062332;28;20017;-72
2022/02/17 00:56:30;;;;;;;35.97;17.52;;;;;;;3.96;66.73;93630.56;5061957;28;20067;-72
2022/02/17 00:58:56;;;;;;;34.88;16.80;;;;;;;3.91;67.10;93634.03;5062027;28;20092;-72
2022/02/17 01:01:22;;;;;;;39.00;18.90;;;;;;;3.90;67.13;93635.09;5061996;28;20270;-72
2022/02/17 01:03:47;;;;;;;38.22;18.05;;;;;;;3.86;67.16;93631.41;5061902;28;20307;-72
2022/02/17 01:06:13;;;;;;;38.65;18.98;;;;;;;3.77;67.59;93639.16;5061927;28;20070;-72
2022/02/17 01:08:38;;;;;;;49.58;20.15;;;;;;;3.66;67.61;93639.50;5061980;28;20024;-72
2022/02/17 01:11:03;;;;;;;40.10;20.05;;;;;;;3.56;68.25;93629.78;5062044;28;20114;-71
2022/02/17 01:13:29;;;;;;;44.92;20.15;;;;;;;3.51;68.35;93632.47;5061830;28;20327;-71
2022/02/17 01:15:55;;;;;;;47.25;21.70;;;;;;;3.44;68.79;93629.34;5061827;28;20025;-70
2022/02/17 01:18:20;;;;;;;52.55;20.80;;;;;;;3.46;68.33;93627.22;5061762;28;20021;-71
2022/02/17 01:20:49;;;;;;;50.85;21.48;;;;;;;3.49;68.41;93614.31;5060400;28;20104;-71
2022/02/17 01:23:14;;;;;;;50.70;21.10;;;;;;;3.54;68.17;93616.09;5062305;28;20047;-71
2022/02/17 01:25:40;;;;;;;45.40;20.05;;;;;;;3.56;67.42;93612.16;5062360;28;20230;-71
2022/02/17 01:28:06;;;;;;;46.25;20.98;;;;;;;3.56;67.27;93600.81;5065364;28;20032;-71
2022/02/17 01:30:31;;;;;;;46.35;21.00;;;;;;;3.51;67.63;93604.28;5065454;28;20036;-71
2022/02/17 01:32:57;;;;;;;51.13;21.48;;;;;;;3.44;67.77;93597.72;5065267;28;20238;-70
2022/02/17 01:35:22;;;;;;;58.88;24.10;;;;;;;3.45;67.58;93589.56;5065138;28;20028;-71
2022/02/17 01:37:48;;;;;;;54.40;23.48;;;;;;;3.33;69.01;93592.53;5065277;28;20024;-71
2022/02/17 01:40:13;;;;;;;51.05;23.35;;;;;;;3.28;69.59;93597.84;5065242;28;20077;-71
2022/02/17 01:42:39;;;;;;;44.78;21.20;;;;;;;3.28;69.43;93587.31;5065227;28;20029;-71
2022/02/17 01:45:07;;;;;;;52.28;23.85;;;;;;;3.30;68.95;93579.94;5065202;28;20032;-71
2022/02/17 01:47:33;;;;;;;48.83;20.45;;;;;;;3.31;68.77;93570.94;5064962;28;20035;-71
2022/02/17 01:49:58;;;;;;;49.83;21.13;;;;;;;3.27;68.61;93580.47;5065062;28;20330;-71
2022/02/17 01:52:24;;;;;;;53.55;21.73;;;;;;;3.29;68.65;93570.44;5065051;28;20037;-71
2022/02/17 01:54:50;;;;;;;47.97;22.45;;;;;;;3.30;68.75;93566.75;5064940;28;20028;-71
2022/02/17 01:57:19;;;;;;;50.30;22.23;;;;;;;3.35;68.39;93569.34;5065121;28;20331;-71
2022/02/17 01:59:46;;;;;;;37.75;19.15;;;;;;;3.38;68.05;93568.81;5064905;28;20043;-71
2022/02/17 02:02:12;;;;;;;43.53;20.40;;;;;;;3.38;68.37;93571.44;5064881;28;20323;-71
2022/02/17 02:04:38;;;;;;;39.85;21.25;;;;;;;3.36;67.99;93578.06;5063388;28;20064;-71
2022/02/17 02:07:04;;;;;;;48.30;24.65;;;;;;;3.29;68.64;93582.81;5064647;28;20127;-71
2022/02/17 02:09:31;;;;;;;59.05;27.27;;;;;;;3.17;69.16;93575.25;5064590;28;20035;-71
2022/02/17 02:11:57;;;;;;;51.08;27.95;;;;;;;3.20;69.54;93567.59;5064840;28;20111;-71
2022/02/17 02:14:22;;;;;;;54.08;27.67;;;;;;;3.24;69.22;93561.78;5064427;28;20028;-71
2022/02/17 02:16:48;;;;;;;43.70;25.38;;;;;;;3.23;69.20;93571.53;5064694;28;20027;-71
2022/02/17 02:19:13;;;;;;;49.92;24.92;;;;;;;3.26;69.77;93575.47;5064707;28;20223;-71
2022/02/17 02:21:39;;;;;;;54.58;27.17;;;;;;;3.31;69.79;93572.81;5064315;28;20063;-71
2022/02/17 02:24:05;;;;;;;47.70;26.52;;;;;;;3.25;69.60;93566.78;5064400;28;20028;-71
2022/02/17 02:26:30;;;;;;;55.28;26.17;;;;;;;3.34;69.55;93578.31;5064493;28;20033;-71
2022/02/17 02:28:56;;;;;;;56.10;26.95;;;;;;;3.34;69.69;93567.00;5064304;28;20127;-71
2022/02/17 02:31:22;;;;;;;48.47;24.40;;;;;;;3.36;69.82;93576.19;5064245;28;20067;-71
2022/02/17 02:33:48;;;;;;;50.38;26.17;;;;;;;3.36;69.37;93573.56;5062998;28;20013;-71
2022/02/17 02:36:14;;;;;;;45.17;24.20;;;;;;;3.32;69.07;93572.53;5063795;28;20083;-71
2022/02/17 02:38:40;;;;;;;51.65;23.52;;;;;;;3.30;69.86;93581.78;5064157;28;20044;-71
2022/02/17 02:41:06;;;;;;;45.30;22.33;;;;;;;3.30;69.51;93577.28;5064188;28;20021;-71
2022/02/17 02:43:32;;;;;;;51.45;22.33;;;;;;;3.25;69.80;93563.38;5063994;28;20071;-71
2022/02/17 02:45:57;;;;;;;49.33;23.52;;;;;;;3.24;70.36;93562.59;5063809;28;20059;-71
2022/02/17 02:48:22;;;;;;;45.40;21.67;;;;;;;3.28;70.47;93568.06;5063824;28;20048;-71
2022/02/17 02:50:48;;;;;;;51.20;23.08;;;;;;;3.31;70.20;93572.81;5063906;28;20024;-71
2022/02/17 02:53:15;;;;;;;48.45;22.70;;;;;;;3.36;69.85;93572.78;5063987;28;20024;-71
2022/02/17 02:55:45;;;;;;;46.22;20.98;;;;;;;3.39;69.17;93578.28;5063709;28;20027;-71
2022/02/17 02:58:15;;;;;;;37.00;18.10;;;;;;;3.38;68.65;93574.06;5063628;28;20033;-71
2022/02/17 03:00:42;;;;;;;46.55;19.83;;;;;;;3.34;68.69;93575.69;5063504;28;20025;-71
2022/02/17 03:03:08;;;;;;;38.45;19.48;;;;;;;3.30;69.52;93577.28;5063526;28;20183;-71
2022/02/17 03:05:34;;;;;;;34.47;17.67;;;;;;;3.34;69.35;93577.53;5063392;28;20025;-71
2022/02/17 03:08:01;;;;;;;37.92;16.73;;;;;;;3.30;69.80;93582.56;5063495;28;20336;-71
2022/02/17 03:10:30;;;;;;;35.97;17.00;;;;;;;3.26;70.23;93575.47;5063173;28;20048;-71
2022/02/17 03:12:56;;;;;;;38.42;17.05;;;;;;;3.28;70.29;93574.16;5063267;28;20045;-71
2022/02/17 03:15:23;;;;;;;33.55;16.55;;;;;;;3.31;69.84;93578.84;5063217;28;20254;-71
2022/02/17 03:17:48;;;;;;;36.58;16.27;;;;;;;3.26;69.58;93567.56;5063334;28;20028;-71
2022/02/17 03:20:14;;;;;;;43.22;17.95;;;;;;;3.31;69.09;93563.06;5063400;28;20119;-71
2022/02/17 03:22:40;;;;;;;32.75;17.45;;;;;;;3.28;69.04;93555.72;5063252;28;20039;-71
2022/02/17 03:25:13;;;;;;;44.03;19.48;;;;;;;3.27;69.26;93548.84;5063037;28;20016;-71
2022/02/17 03:27:38;;;;;;;41.67;19.02;;;;;;;3.23;69.38;93558.38;5063130;28;20021;-70
2022/02/17 03:30:05;;;;;;;33.97;17.60;;;;;;;3.18;69.89;93550.50;5061721;28;20051;-70
2022/02/17 03:32:31;;;;;;;40.13;17.33;;;;;;;3.24;69.52;93551.25;5061868;28;20051;-70
2022/02/17 03:34:56;;;;;;;36.30;16.52;;;;;;;3.21;68.95;93545.47;5062909;28;20016;-70
2022/02/17 03:37:21;;;;;;;37.38;18.08;;;;;;;3.15;68.80;93537.88;5062794;28;20021;-71
2022/02/17 03:39:47;;;;;;;35.78;18.17;;;;;;;3.17;69.29;93536.53;5062866;28;20021;-71
2022/02/17 03:42:12;;;;;;;39.35;17.00;;;;;;;3.15;69.07;93543.16;5062743;28;20013;-71
2022/02/17 03:44:38;;;;;;;36.58;17.42;;;;;;;3.10;69.00;93540.56;5062685;28;20016;-71
2022/02/17 03:47:04;;;;;;;38.70;17.48;;;;;;;3.10;69.07;93535.28;5062751;28;20017;-71
2022/02/17 03:49:30;;;;;;;34.28;15.55;;;;;;;3.12;68.81;93546.34;5061960;28;20028;-71
2022/02/17 03:51:55;;;;;;;39.58;16.92;;;;;;;3.06;69.42;93539.53;5062453;28;20090;-71
2022/02/17 03:54:21;;;;;;;39.67;16.90;;;;;;;3.09;69.62;93549.50;5062742;28;20311;-71
2022/02/17 03:56:47;;;;;;;38.40;16.10;;;;;;;3.04;69.49;93545.06;5062668;28;20335;-71
2022/02/17 03:59:13;;;;;;;33.95;15.75;;;;;;;3.07;69.69;93535.81;5062526;28;20028;-71
2022/02/17 04:01:39;;;;;;;28.70;14.48;;;;;;;3.06;69.01;93550.84;5062573;28;20081;-70
2022/02/17 04:04:06;;;;;;;28.90;13.43;;;;;;;2.90;71.64;93546.75;5062302;28;20249;-70
2022/02/17 04:06:32;;;;;;;31.63;14.25;;;;;;;2.87;71.59;93549.91;5062474;28;20134;-71
2022/02/17 04:08:57;;;;;;;28.42;14.32;;;;;;;2.83;71.75;93562.84;5062570;28;20029;-71
2022/02/17 04:11:24;;;;;;;31.15;15.27;;;;;;;2.90;71.45;93559.91;5062416;28;20027;-70
2022/02/17 04:13:49;;;;;;;33.72;15.65;;;;;;;2.90;71.12;93578.31;5062511;28;20035;-71
2022/02/17 04:16:18;;;;;;;29.13;15.07;;;;;;;2.86;70.94;93590.47;5062147;28;20096;-71
2022/02/17 04:18:45;;;;;;;28.95;14.27;;;;;;;2.80;70.21;93590.47;5062445;28;20056;-70
2022/02/17 04:21:12;;;;;;;37.65;15.77;;;;;;;2.63;70.96;93579.50;5062328;28;20029;-71
2022/02/17 04:23:42;;;;;;;45.92;18.77;;;;;;;2.49;72.32;93589.81;5062453;28;20024;-70
2022/02/17 04:26:08;;;;;;;39.80;19.63;;;;;;;2.46;72.94;93573.78;5062066;28;20282;-70
2022/02/17 04:28:34;;;;;;;46.78;19.65;;;;;;;2.51;73.10;93582.44;5062176;28;20025;-71
2022/02/17 04:30:59;;;;;;;44.20;22.55;;;;;;;2.54;73.37;93581.88;5062355;28;20068;-71
2022/02/17 04:33:24;;;;;;;48.03;22.17;;;;;;;2.58;73.77;93569.00;5062156;28;20071;-69
2022/02/17 04:35:50;;;;;;;42.67;22.00;;;;;;;2.64;73.55;93564.50;5062265;28;20013;-70
2022/02/17 04:38:15;;;;;;;48.05;21.83;;;;;;;2.68;73.13;93547.13;5062226;28;20256;-71
2022/02/17 04:43:25;;;;;;;41.92;21.10;;;;;;;2.87;72.66;93552.53;5062094;28;20032;-71
2022/02/17 04:45:50;;;;;;;40.42;20.58;;;;;;;2.98;72.33;93549.56;5062191;28;20130;-71
2022/02/17 04:48:16;;;;;;;48.88;22.02;;;;;;;3.07;72.19;93538.47;5062206;28;20063;-71
2022/02/17 04:50:41;;;;;;;48.30;22.65;;;;;;;3.17;71.97;93546.28;5062050;28;20025;-70
2022/02/17 04:53:07;;;;;;;46.38;22.40;;;;;;;3.29;71.67;93540.69;5062094;28;20151;-71
2022/02/17 04:55:33;;;;;;;45.88;21.77;;;;;;;3.34;71.28;93528.28;5061985;28;20040;-71
2022/02/17 04:57:58;;;;;;;48.80;23.75;;;;;;;3.40;71.19;93524.53;5061883;28;20025;-71
2022/02/17 05:00:24;;;;;;;45.97;22.15;;;;;;;3.49;70.66;93531.84;5064515;28;20021;-71
2022/02/17 05:02:49;;;;;;;47.20;22.83;;;;;;;3.51;70.90;93529.72;5066083;28;20017;-71
2022/02/17 05:05:15;;;;;;;50.97;24.92;;;;;;;3.57;70.72;93533.88;5065796;28;20103;-71
2022/02/17 05:07:41;;;;;;;55.58;26.85;;;;;;;3.65;70.56;93529.88;5065772;28;20088;-70
2022/02/17 05:10:06;;;;;;;48.65;26.67;;;;;;;3.67;70.59;93530.38;5065725;28;20080;-71
2022/02/17 05:12:32;;;;;;;53.17;26.45;;;;;;;3.74;70.07;93536.88;5065526;28;20239;-71
2022/02/17 05:14:57;;;;;;;50.08;24.92;;;;;;;3.77;70.12;93527.66;5065701;28;20025;-71
2022/02/17 05:17:23;;;;;;;46.90;23.13;;;;;;;3.84;69.64;93527.31;5065660;28;20286;-71
2022/02/17 05:19:49;;;;;;;47.58;24.45;;;;;;;3.87;69.47;93529.38;5065690;28;20013;-71
2022/02/17 05:22:14;;;;;;;47.65;24.23;;;;;;;3.88;69.45;93533.59;5065364;28;20021;-71
2022/02/17 05:24:39;;;;;;;48.08;24.17;;;;;;;3.91;69.28;93530.38;5065249;28;20219;-70
2022/02/17 05:27:05;;;;;;;49.42;24.75;;;;;;;3.93;69.17;93531.69;5065164;28;20017;-71
2022/02/17 05:29:30;;;;;;;54.03;26.15;;;;;;;3.95;69.13;93534.06;5065512;28;20306;-71
2022/02/17 05:31:56;;;;;;;57.65;26.98;;;;;;;3.95;69.04;93524.31;5065149;28;20233;-71
2022/02/17 05:34:21;;;;;;;56.38;30.08;;;;;;;4.00;68.71;93521.59;5065563;28;20021;-70
2022/02/17 05:36:46;;;;;;;52.08;27.00;;;;;;;3.99;68.77;93511.34;5065407;28;20319;-71
2022/02/17 05:39:12;;;;;;;55.17;29.02;;;;;;;4.01;68.70;93519.75;5065125;28;20032;-71
2022/02/17 05:41:38;;;;;;;58.05;26.88;;;;;;;4.03;68.78;93504.44;5064941;28;20031;-71
2022/02/17 05:44:04;;;;;;;54.75;27.13;;;;;;;4.08;68.55;93507.00;5064982;28;20024;-70
2022/02/17 05:46:30;;;;;;;62.00;29.02;;;;;;;4.11;68.60;93511.75;5065053;28;20043;-71
2022/02/17 05:48:55;;;;;;;73.65;31.48;;;;;;;4.13;68.54;93512.25;5065149;28;20053;-71
2022/02/17 05:51:21;;;;;;;62.00;31.15;;;;;;;4.18;68.45;93524.59;5064936;28;20302;-71
2022/02/17 05:53:47;;;;;;;62.17;29.92;;;;;;;4.20;68.41;93514.53;5064970;28;20029;-71
2022/02/17 05:56:13;;;;;;;61.22;30.35;;;;;;;4.28;68.33;93515.78;5065051;28;20025;-71
2022/02/17 05:58:39;;;;;;;54.58;28.45;;;;;;;4.35;68.45;93516.22;5064779;28;20253;-71
2022/02/17 06:01:04;;;;;;;64.07;28.58;;;;;;;4.41;67.88;93523.78;5064928;28;20024;-71
2022/02/17 06:03:30;;;;;;;60.60;29.98;;;;;;;4.41;68.14;93525.63;5064816;28;20040;-71
2022/02/17 06:05:56;;;;;;;58.53;29.55;;;;;;;4.44;68.31;93533.00;5063427;28;20037;-71
2022/02/17 06:08:21;;;;;;;64.43;30.10;;;;;;;4.54;68.33;93538.16;5064549;28;20024;-71
2022/02/17 06:10:47;;;;;;;61.67;29.50;;;;;;;4.61;68.23;93524.59;5064328;28;20050;-71
2022/02/17 06:13:13;;;;;;;62.03;29.30;;;;;;;4.68;68.05;93537.44;5063833;28;20072;-70
2022/02/17 06:15:38;;;;;;;56.00;29.58;;;;;;;4.75;67.93;93540.53;5064558;28;20028;-71
2022/02/17 06:18:04;;;;;;;63.40;30.88;;;;;;;4.78;67.78;93534.69;5064233;28;20029;-71
2022/02/17 06:20:30;;;;;;;61.20;29.10;;;;;;;4.88;67.72;93537.19;5064570;28;20276;-71
2022/02/17 06:22:55;;;;;;;56.45;27.85;;;;;;;4.97;66.75;93538.13;5064232;28;20027;-71
2022/02/17 06:25:21;;;;;;;60.63;29.48;;;;;;;5.05;66.32;93547.28;5064352;28;20029;-71
2022/02/17 06:27:48;;;;;;;59.35;30.38;;;;;;;5.09;66.19;93558.03;5064223;28;20039;-71
2022/02/17 06:30:14;;;;;;;62.97;29.65;;;;;;;5.14;66.09;93557.97;5064170;28;20070;-71
2022/02/17 06:32:47;;;;;;;61.60;30.27;;;;;;;5.14;65.82;93561.41;5064236;28;20196;-71
2022/02/17 06:35:12;;;;;;;51.45;27.75;;;;;;;5.17;65.68;93563.47;5064021;28;20017;-71
2022/02/17 06:37:38;;;;;;;109.65;45.05;;;;;;;5.16;65.47;93558.47;5062862;28;20017;-71
2022/02/17 06:40:04;;;;;;;103.95;44.10;;;;;;;5.13;66.11;93573.03;5064021;28;20017;-71
2022/02/17 06:42:29;;;;;;;75.93;33.22;;;;;;;5.07;66.31;93565.47;5064017;28;20021;-71
2022/02/17 06:44:55;;;;;;;65.78;31.88;;;;;;;4.99;65.95;93578.25;5064024;28;20032;-71
2022/02/17 06:47:20;;;;;;;63.35;32.85;;;;;;;4.93;66.43;93557.47;5064126;28;20023;-71
2022/02/17 06:49:46;;;;;;;59.00;31.63;;;;;;;4.96;66.69;93556.91;5063476;28;20040;-71
2022/02/17 06:52:11;;;;;;;61.10;31.50;;;;;;;5.05;65.27;93549.09;5063784;28;20036;-71
2022/02/17 06:54:37;;;;;;;60.58;29.95;;;;;;;5.02;65.46;93556.53;5063870;28;20027;-71
2022/02/17 06:57:03;;;;;;;59.67;29.70;;;;;;;4.90;65.97;93573.88;5063739;28;20334;-71
2022/02/17 06:59:28;;;;;;;73.97;33.22;;;;;;;4.70;66.63;93559.88;5063501;28;20028;-70
2022/02/17 07:01:54;;;;;;;66.30;31.52;;;;;;;4.60;67.51;93560.78;5063784;28;20025;-71
2022/02/17 07:04:19;;;;;;;67.65;32.63;;;;;;;4.66;66.90;93581.81;5063423;28;20032;-72
2022/02/17 07:06:47;;;;;;;65.57;32.03;;;;;;;4.60;66.89;93565.28;5063574;28;20031;-70
2022/02/17 07:09:12;;;;;;;66.63;32.22;;;;;;;4.63;66.95;93557.56;5063218;28;20017;-70
2022/02/17 07:11:38;;;;;;;62.67;31.25;;;;;;;4.69;66.62;93549.59;5063335;28;21056;-70
2022/02/17 07:14:04;;;;;;;60.97;30.10;;;;;;;4.82;66.20;93552.34;5063400;28;20254;-70
2022/02/17 07:16:29;;;;;;;60.05;31.67;;;;;;;4.94;66.26;93548.47;5063131;28;20088;-70
2022/02/17 07:18:54;;;;;;;57.05;30.27;;;;;;;5.09;65.64;93544.81;5063010;28;20051;-70
2022/02/17 07:21:20;;;;;;;60.50;29.30;;;;;;;5.19;64.89;93531.47;5063268;28;20021;-71
2022/02/17 07:23:45;;;;;;;60.20;29.48;;;;;;;5.26;64.67;93529.25;5063161;28;20044;-71
2022/02/17 07:26:12;;;;;;;69.88;31.83;;;;;;;5.28;64.83;93521.84;5063136;28;20095;-71
2022/02/17 07:28:37;;;;;;;62.20;31.30;;;;;;;5.36;64.46;93517.75;5062613;28;20259;-70
2022/02/17 07:31:03;;;;;;;69.28;31.30;;;;;;;5.35;64.76;93511.69;5063011;28;20040;-71
2022/02/17 07:33:29;;;;;;;61.97;31.00;;;;;;;5.35;65.13;93522.25;5062897;28;20028;-71
2022/02/17 07:35:54;;;;;;;57.13;30.90;;;;;;;5.42;64.40;93506.03;5063108;28;20066;-70
2022/02/17 07:38:20;;;;;;;61.95;32.65;;;;;;;5.52;64.44;93505.09;5063015;28;20021;-69
2022/02/17 07:40:45;;;;;;;74.15;33.85;;;;;;;5.68;64.54;93503.75;5062899;28;20017;-70
2022/02/17 07:43:11;;;;;;;67.53;32.30;;;;;;;5.85;64.50;93491.84;5062914;28;20088;-70
2022/02/17 07:45:37;;;;;;;88.50;33.10;;;;;;;5.99;64.36;93495.31;5062820;28;20024;-69
2022/02/17 07:48:04;;;;;;;70.40;32.42;;;;;;;6.14;64.35;93489.72;5062747;28;20144;-70
2022/02/17 07:50:32;;;;;;;63.65;32.40;;;;;;;6.28;64.11;93488.94;5062756;28;20102;-69
2022/02/17 07:52:57;;;;;;;73.78;35.08;;;;;;;6.38;63.87;93467.56;5062666;28;20184;-69
2022/02/17 07:55:25;;;;;;;79.43;34.10;;;;;;;6.53;62.97;93458.53;5062893;28;20017;-70
2022/02/17 07:57:51;;;;;;;66.18;33.33;;;;;;;6.62;62.88;93448.81;5062863;28;20047;-69
2022/02/17 08:00:16;;;;;;;70.85;33.72;;;;;;;6.74;62.38;93443.00;5062623;28;20063;-69
2022/02/17 08:02:42;;;;;;;68.18;31.05;;;;;;;6.77;62.05;93451.09;5062572;28;20025;-70
2022/02/17 08:05:09;;;;;;;74.65;31.05;;;;;;;6.83;61.57;93447.25;5062175;28;20052;-70
2022/02/17 08:07:37;;;;;;;72.85;33.55;;;;;;;6.92;61.87;93447.34;5062585;28;20231;-71
2022/02/17 08:10:04;;;;;;;71.75;31.85;;;;;;;6.98;61.37;93438.22;5062514;28;20183;-71
2022/02/17 08:12:30;;;;;;;60.15;27.10;;;;;;;7.06;61.16;93452.59;5062006;28;20072;-71
2022/02/17 08:14:57;;;;;;;57.88;29.48;;;;;;;7.09;60.63;93456.53;5061136;28;20028;-71
2022/02/17 08:17:22;;;;;;;60.97;30.08;;;;;;;7.19;60.17;93453.63;5062374;28;20028;-71
2022/02/17 08:19:48;;;;;;;59.80;27.67;;;;;;;7.20;59.81;93458.59;5062307;28;20024;-71
2022/02/17 08:22:13;;;;;;;54.20;25.83;;;;;;;7.22;60.00;93447.72;5062157;28;20223;-70
2022/02/17 08:24:39;;;;;;;55.13;27.40;;;;;;;7.29;59.81;93445.44;5062051;28;20021;-69
2022/02/17 08:27:04;;;;;;;50.60;27.27;;;;;;;7.38;59.42;93448.13;5062240;28;20084;-71
2022/02/17 08:29:31;;;;;;;56.15;26.60;;;;;;;7.47;59.48;93453.47;5061891;28;20055;-70
2022/02/17 08:31:57;;;;;;;55.80;26.45;;;;;;;7.49;59.17;93441.50;5060895;28;20013;-70
2022/02/17 08:34:23;;;;;;;54.42;24.98;;;;;;;7.46;58.63;93436.81;5063472;28;20082;-72
2022/02/17 08:36:48;;;;;;;48.70;22.05;;;;;;;7.48;58.60;93441.81;5068722;28;20101;-71
2022/02/17 08:39:14;;;;;;;43.45;22.88;;;;;;;7.53;58.46;93446.97;5068906;28;20315;-69
2022/02/17 08:41:40;;;;;;;49.13;21.67;;;;;;;7.60;58.43;93431.41;5068532;28;20123;-71
2022/02/17 08:44:06;;;;;;;44.72;23.30;;;;;;;7.68;58.22;93440.50;5068490;28;20020;-71
2022/02/17 08:46:32;;;;;;;45.13;20.98;;;;;;;7.77;57.43;93441.31;5068735;28;20082;-70
2022/02/17 08:48:58;;;;;;;48.75;21.85;;;;;;;7.83;57.29;93440.88;5068746;28;20020;-70
2022/02/17 08:51:29;;;;;;;41.58;20.80;;;;;;;7.80;57.50;93435.44;5068800;28;20074;-71
2022/02/17 08:53:55;;;;;;;37.78;19.83;;;;;;;7.86;57.26;93436.84;5068636;28;20031;-71
2022/02/17 08:56:20;;;;;;;44.60;19.77;;;;;;;7.93;56.64;93421.25;5068393;28;20054;-70
2022/02/17 08:58:46;;;;;;;45.30;22.08;;;;;;;8.03;56.72;93423.63;5068316;28;20037;-71
2022/02/17 09:01:11;;;;;;;41.72;21.83;;;;;;;8.12;56.76;93413.06;5068486;28;20204;-70
2022/02/17 09:03:37;;;;;;;47.95;22.17;;;;;;;8.20;56.48;93400.88;5068543;28;20029;-70
2022/02/17 09:06:02;;;;;;;45.95;21.60;;;;;;;8.29;56.10;93411.53;5068314;28;20070;-70
2022/02/17 09:08:28;;;;;;;55.38;22.90;;;;;;;8.39;55.82;93405.94;5068253;28;20028;-69
2022/02/17 09:10:56;;;;;;;49.60;24.95;;;;;;;8.43;55.63;93410.34;5068828;28;20028;-69
2022/02/17 09:13:22;;;;;;;48.10;22.10;;;;;;;8.50;56.09;93415.19;5068250;28;20045;-70
2022/02/17 09:15:47;;;;;;;53.22;21.63;;;;;;;8.59;54.77;93413.34;5068298;28;20180;-72
2022/02/17 09:18:12;;;;;;;52.78;21.98;;;;;;;8.60;54.97;93414.91;5068511;28;20037;-70
2022/02/17 09:20:39;;;;;;;48.60;19.55;;;;;;;8.43;54.97;93394.41;5068118;28;20048;-70
2022/02/17 09:23:06;;;;;;;40.92;19.10;;;;;;;8.53;54.88;93401.31;5068502;28;20256;-69
2022/02/17 09:25:32;;;;;;;44.35;20.10;;;;;;;8.60;55.04;93404.28;5067055;28;20024;-69
2022/02/17 09:27:57;;;;;;;45.78;21.35;;;;;;;8.66;55.06;93401.47;5068341;28;20028;-69
2022/02/17 09:30:23;;;;;;;47.50;21.17;;;;;;;8.74;55.27;93403.34;5068430;28;20021;-71
2022/02/17 09:32:48;;;;;;;49.53;20.95;;;;;;;8.84;54.69;93390.53;5068369;28;20051;-70
2022/02/17 09:35:14;;;;;;;42.65;19.98;;;;;;;8.91;54.79;93398.03;5068265;28;20074;-70
2022/02/17 09:37:40;;;;;;;45.35;20.60;;;;;;;8.96;54.58;93395.22;5068270;28;20100;-70
2022/02/17 09:40:06;;;;;;;52.63;20.63;;;;;;;9.07;54.64;93389.59;5068509;28;20029;-70
2022/02/17 09:42:37;;;;;;;42.65;18.77;;;;;;;9.17;54.14;93392.69;5068391;28;20091;-70
2022/02/17 09:45:08;;;;;;;39.35;20.75;;;;;;;9.29;54.27;93397.38;5068079;28;20024;-70
2022/02/17 09:47:35;;;;;;;37.08;17.58;;;;;;;9.39;54.09;93391.72;5063849;28;20027;-70
2022/02/17 09:50:01;;;;;;;64.00;21.60;;;;;;;9.50;53.88;93394.03;5064023;28;20061;-71
2022/02/17 09:52:27;;;;;;;40.15;18.55;;;;;;;9.61;53.83;93389.97;5065164;28;20104;-71
2022/02/17 09:54:53;;;;;;;38.03;20.50;;;;;;;9.63;53.19;93385.09;5065141;28;20016;-71
2022/02/17 09:57:22;;;;;;;44.67;20.27;;;;;;;9.73;52.96;93390.06;5064780;28;20028;-71
2022/02/17 09:59:48;;;;;;;45.30;19.63;;;;;;;9.78;53.06;93389.88;5064741;28;20048;-70
2022/02/17 10:02:35;;;;;;;32.95;19.45;;;;;;;9.86;52.59;93390.19;5065165;28;20185;-73
2022/02/17 10:05:05;;;;;;;35.90;18.50;;;;;;;9.92;52.52;93372.94;5064705;28;20488;-72
2022/02/17 10:07:48;;;;;;;45.97;19.25;;;;;;;9.93;52.24;93385.13;5065015;28;20028;-71
2022/02/17 10:10:23;;;;;;;43.67;20.58;;;;;;;10.07;51.70;93366.28;5064904;28;20266;-71
2022/02/17 10:13:17;;;;;;;44.35;19.83;;;;;;;10.17;51.75;93361.34;5064662;28;20270;-71
2022/02/17 10:15:42;;;;;;;39.33;20.50;;;;;;;10.24;51.74;93356.31;5064823;28;20246;-71
2022/02/17 10:18:14;;;;;;;37.03;18.75;;;;;;;10.42;51.71;93350.88;5064504;28;20028;-71
2022/02/17 10:20:59;;;;;;;43.22;19.67;;;;;;;10.58;50.86;93349.22;5064554;28;20009;-71
2022/02/17 10:23:30;;;;;;;37.65;18.10;;;;;;;10.74;50.73;93351.28;5064686;28;20029;-72
2022/02/17 10:25:57;;;;;;;40.03;19.40;;;;;;;10.83;50.62;93336.81;5064742;28;20269;-71
2022/02/17 10:28:23;;;;;;;43.15;17.45;;;;;;;10.97;50.76;93333.06;5064523;28;20315;-71
2022/02/17 10:30:48;;;;;;;29.13;15.88;;;;;;;11.10;50.24;93332.00;5064378;28;20021;-71
2022/02/17 10:33:14;;;;;;;41.58;19.02;;;;;;;11.24;50.00;93332.50;5064261;28;20100;-71
2022/02/17 10:35:51;;;;;;;36.38;17.90;;;;;;;11.40;49.39;93323.88;5064249;28;20242;-72
2022/02/17 10:38:20;;;;;;;47.00;18.13;;;;;;;11.57;49.37;93325.56;5064410;28;20036;-71
2022/02/17 10:40:50;;;;;;;41.67;16.65;;;;;;;11.77;48.81;93313.22;5064456;28;20102;-71
2022/02/17 10:43:16;;;;;;;37.65;17.77;;;;;;;11.99;47.89;93312.81;5063969;28;20017;-71
2022/02/17 10:45:47;;;;;;;33.25;17.52;;;;;;;12.12;47.65;93304.78;5064011;28;20043;-71
2022/02/17 10:48:26;;;;;;;45.88;20.15;;;;;;;12.29;47.31;93279.72;5064191;28;20021;-71
2022/02/17 10:51:09;;;;;;;44.20;19.60;;;;;;;12.38;47.20;93275.78;5063936;28;20041;-71
2022/02/17 10:53:58;;;;;;;38.30;18.15;;;;;;;12.58;46.28;93257.25;5063960;28;20390;-70
2022/02/17 10:56:25;;;;;;;42.28;17.38;;;;;;;12.70;46.18;93264.44;5064277;28;20325;-71
2022/02/17 10:58:51;;;;;;;43.10;19.15;;;;;;;12.80;45.91;93261.28;5063427;28;20021;-70
2022/02/17 11:01:19;;;;;;;43.50;20.23;;;;;;;12.89;45.37;93245.88;5063842;28;20039;-70
2022/02/17 11:03:48;;;;;;;37.53;17.30;;;;;;;12.99;45.16;93242.69;5063983;28;20029;-72
2022/02/17 11:06:15;;;;;;;45.03;17.58;;;;;;;13.11;44.99;93236.50;5063713;28;20028;-72
2022/02/17 11:08:47;;;;;;;29.08;16.50;;;;;;;13.24;44.74;93237.19;5063789;28;20099;-70
2022/02/17 11:11:15;;;;;;;39.08;18.23;;;;;;;13.33;44.75;93231.69;5063481;28;20020;-70
2022/02/17 11:13:49;;;;;;;53.90;19.17;;;;;;;13.51;44.17;93235.59;5063170;28;20048;-70
2022/02/17 11:16:17;;;;;;;37.05;15.10;;;;;;;13.70;43.53;93218.84;5063595;28;20215;-70
2022/02/17 11:18:44;;;;;;;41.20;16.33;;;;;;;13.82;43.39;93221.41;5063273;28;20025;-71
2022/02/17 11:21:15;;;;;;;38.03;17.92;;;;;;;14.02;43.05;93224.13;5063395;28;20043;-71
2022/02/17 11:23:41;;;;;;;44.58;17.40;;;;;;;14.21;42.63;93224.16;5063277;28;20251;-71